Time;durP1;ratioP1;P1;durP2;ratioP2;P2;SDS_P1;SDS_P2;PMS_P1;PMS_P2;Temp;Humidity;BMP_temperature;BMP_pressure;BME280_temperature;BME280_humidity;BME280_pressure;Samples;Min_cycle;Max_cycle;Signal;HPM_P1;HPM_P2
2023/03/22 00:00:16;;;;;;;9.73;6.57;;;8.90;1.00;;;;;;5005078;28;20050;-78
2023/03/22 00:02:42;;;;;;;12.60;6.05;;;8.90;1.00;;;;;;5011759;28;20041;-77
2023/03/22 00:05:08;;;;;;;10.00;6.90;;;8.90;1.00;;;;;;4987144;28;20057;-78
2023/03/22 00:07:36;;;;;;;10.48;6.70;;;8.90;1.00;;;;;;5010344;28;20023;-78
2023/03/22 00:10:04;;;;;;;10.30;6.82;;;8.90;1.00;;;;;;5007738;28;20371;-77
2023/03/22 00:12:30;;;;;;;11.65;7.80;;;8.80;1.00;;;;;;5003008;28;20065;-77
2023/03/22 00:14:56;;;;;;;11.48;8.23;;;8.80;1.00;;;;;;5003249;28;20030;-77
2023/03/22 00:17:24;;;;;;;12.48;5.82;;;8.80;1.00;;;;;;4983490;28;20038;-78
2023/03/22 00:19:53;;;;;;;7.68;5.70;;;8.80;1.00;;;;;;5008563;28;20034;-78
2023/03/22 00:22:19;;;;;;;8.85;5.90;;;8.80;1.00;;;;;;5004889;28;20041;-83
2023/03/22 00:24:45;;;;;;;7.47;6.22;;;8.90;1.00;;;;;;5009366;28;20110;-77
2023/03/22 00:27:12;;;;;;;8.65;6.53;;;9.00;1.00;;;;;;4987830;28;20046;-80
2023/03/22 00:29:38;;;;;;;9.45;6.75;;;9.00;1.00;;;;;;5006575;28;20030;-78
2023/03/22 00:32:04;;;;;;;9.13;5.20;;;9.00;1.00;;;;;;5004995;28;20037;-78
2023/03/22 00:34:32;;;;;;;9.82;6.50;;;9.00;1.00;;;;;;4989525;28;20046;-79
2023/03/22 00:36:59;;;;;;;12.50;6.72;;;9.00;1.00;;;;;;5001101;28;20031;-79
2023/03/22 00:39:25;;;;;;;10.93;6.20;;;9.00;1.00;;;;;;5003220;28;20394;-78
2023/03/22 00:41:52;;;;;;;9.25;5.68;;;9.00;1.00;;;;;;5006750;28;20041;-79
2023/03/22 00:44:18;;;;;;;7.72;5.70;;;9.00;1.00;;;;;;4985462;28;20038;-83
2023/03/22 00:46:44;;;;;;;10.75;6.63;;;9.00;1.00;;;;;;4990014;28;20387;-78
2023/03/22 00:49:11;;;;;;;8.57;5.78;;;9.00;1.00;;;;;;5007582;28;20037;-78
2023/03/22 00:51:40;;;;;;;8.48;6.18;;;9.00;1.00;;;;;;4989975;28;20041;-78
2023/03/22 00:54:06;;;;;;;7.53;5.20;;;9.10;1.00;;;;;;5006947;28;20377;-78
2023/03/22 00:56:36;;;;;;;7.80;5.45;;;9.10;1.00;;;;;;4986420;28;20026;-78
2023/03/22 00:59:20;;;;;;;8.82;5.13;;;9.10;1.00;;;;;;4992906;28;20061;-84
2023/03/22 01:01:47;;;;;;;7.82;6.32;;;9.20;1.00;;;;;;4982996;28;20057;-78
2023/03/22 01:04:16;;;;;;;11.10;6.50;;;9.30;1.00;;;;;;5004747;28;20036;-78
2023/03/22 01:06:43;;;;;;;8.98;5.53;;;9.30;1.00;;;;;;5003195;28;20395;-78
2023/03/22 01:09:13;;;;;;;8.85;5.53;;;9.30;1.00;;;;;;4995987;28;20037;-78
2023/03/22 01:11:41;;;;;;;10.00;6.10;;;9.30;1.00;;;;;;4983133;28;20034;-79
2023/03/22 01:14:08;;;;;;;7.90;5.93;;;9.40;1.00;;;;;;5002096;28;20356;-78
2023/03/22 01:16:35;;;;;;;10.13;6.43;;;9.40;1.00;;;;;;5003969;28;20038;-78
2023/03/22 01:19:02;;;;;;;8.80;5.75;;;9.40;1.00;;;;;;4988404;28;20054;-78
2023/03/22 01:21:29;;;;;;;9.38;6.35;;;9.30;1.00;;;;;;4986454;28;20038;-78
2023/03/22 01:23:57;;;;;;;10.15;6.45;;;9.30;1.00;;;;;;4998701;28;20057;-77
2023/03/22 01:26:24;;;;;;;8.93;5.82;;;9.30;1.00;;;;;;4938222;28;20054;-79
2023/03/22 01:28:52;;;;;;;9.40;6.38;;;9.20;1.00;;;;;;4978068;28;20388;-78
2023/03/22 01:31:18;;;;;;;10.00;6.95;;;9.20;1.00;;;;;;5002379;28;20034;-85
2023/03/22 01:33:44;;;;;;;9.50;5.72;;;9.20;1.00;;;;;;4986934;28;20097;-78
2023/03/22 01:36:10;;;;;;;12.23;6.05;;;9.20;1.00;;;;;;5005976;28;20387;-78
2023/03/22 01:38:37;;;;;;;8.75;5.88;;;9.20;1.00;;;;;;5000922;28;20433;-78
2023/03/22 01:41:03;;;;;;;9.35;5.95;;;9.20;1.00;;;;;;4998312;28;20030;-78
2023/03/22 01:43:33;;;;;;;9.13;5.43;;;9.20;1.00;;;;;;4982371;28;20034;-78
2023/03/22 01:45:59;;;;;;;12.23;6.72;;;9.20;1.00;;;;;;4985613;28;20472;-78
2023/03/22 01:48:44;;;;;;;11.13;6.90;;;9.20;1.00;;;;;;4985161;28;20065;-79
2023/03/22 01:51:15;;;;;;;13.57;5.72;;;9.20;1.00;;;;;;5008858;28;20038;-78
2023/03/22 01:54:02;;;;;;;10.65;6.10;;;9.20;1.00;;;;;;4999363;28;20047;-78
2023/03/22 01:56:34;;;;;;;9.32;5.78;;;9.10;1.00;;;;;;4998127;28;20042;-79
2023/03/22 01:59:02;;;;;;;11.77;5.70;;;9.20;1.00;;;;;;4986519;28;20049;-79
2023/03/22 02:01:45;;;;;;;7.55;5.35;;;9.20;1.00;;;;;;4971566;28;20046;-78
2023/03/22 02:04:18;;;;;;;10.45;6.13;;;9.20;1.00;;;;;;4981441;28;20480;-78
2023/03/22 02:06:47;;;;;;;8.13;5.90;;;9.10;1.00;;;;;;4985590;28;20158;-78
2023/03/22 02:09:17;;;;;;;9.80;5.82;;;9.10;1.00;;;;;;4981603;28;20050;-78
2023/03/22 02:11:50;;;;;;;9.82;6.03;;;9.10;1.00;;;;;;5002327;28;20049;-78
2023/03/22 02:14:37;;;;;;;7.50;5.40;;;9.10;1.00;;;;;;4985712;28;20061;-84
2023/03/22 02:17:53;;;;;;;7.97;5.85;;;9.20;1.00;;;;;;4976174;28;20475;-79
2023/03/22 02:20:37;;;;;;;9.75;5.53;;;9.20;1.00;;;;;;4960143;28;20046;-83
2023/03/22 02:23:33;;;;;;;7.70;4.90;;;9.20;1.00;;;;;;5000267;28;20034;-78
2023/03/22 02:26:21;;;;;;;8.63;4.50;;;9.20;1.00;;;;;;5000240;28;20041;-77
2023/03/22 02:28:52;;;;;;;7.03;5.43;;;9.20;1.00;;;;;;4997533;28;20395;-77
2023/03/22 02:31:40;;;;;;;8.25;5.30;;;9.20;1.00;;;;;;4998651;28;20077;-75
2023/03/22 02:34:30;;;;;;;6.85;4.93;;;9.20;1.00;;;;;;5008205;28;20037;-78
2023/03/22 02:37:00;;;;;;;8.93;5.20;;;9.30;1.00;;;;;;4994152;28;20046;-79
2023/03/22 02:39:41;;;;;;;7.32;4.32;;;9.30;1.00;;;;;;5003306;28;20042;-78
2023/03/22 02:42:21;;;;;;;8.45;4.38;;;9.40;1.00;;;;;;4993015;28;20047;-77
2023/03/22 02:44:52;;;;;;;8.77;5.18;;;9.40;1.00;;;;;;5005690;28;20042;-78
2023/03/22 02:47:30;;;;;;;8.60;5.32;;;9.40;1.00;;;;;;5006264;28;20045;-78
2023/03/22 02:50:27;;;;;;;8.98;5.47;;;9.40;1.00;;;;;;5005522;28;20042;-78
2023/03/22 02:53:06;;;;;;;7.95;5.43;;;9.40;1.00;;;;;;5006555;28;20035;-78
2023/03/22 02:55:39;;;;;;;10.07;4.53;;;9.40;1.00;;;;;;5009693;28;20045;-78
2023/03/22 02:58:17;;;;;;;7.40;5.15;;;9.40;1.00;;;;;;5005850;28;20037;-78
2023/03/22 03:00:48;;;;;;;8.10;5.28;;;9.40;1.00;;;;;;5006685;28;20038;-78
2023/03/22 03:03:17;;;;;;;8.70;5.00;;;9.40;1.00;;;;;;5018446;28;20045;-78
2023/03/22 03:05:54;;;;;;;6.90;4.90;;;9.40;1.00;;;;;;5006714;28;20026;-77
2023/03/22 03:08:22;;;;;;;9.02;4.95;;;9.40;1.00;;;;;;5004390;28;20034;-78
2023/03/22 03:10:51;;;;;;;7.05;5.13;;;9.40;1.00;;;;;;5003976;28;20054;-78
2023/03/22 03:13:18;;;;;;;7.10;5.20;;;9.40;1.00;;;;;;5009030;28;20047;-78
2023/03/22 03:15:56;;;;;;;6.57;4.65;;;9.40;1.00;;;;;;4995366;28;20041;-79
2023/03/22 03:18:56;;;;;;;8.55;4.63;;;9.50;1.00;;;;;;5002332;28;20349;-81
2023/03/22 03:21:41;;;;;;;9.75;5.80;;;9.40;1.00;;;;;;4995475;28;20054;-84
2023/03/22 03:24:22;;;;;;;7.88;4.20;;;9.40;1.00;;;;;;5000433;28;20038;-79
2023/03/22 03:26:55;;;;;;;9.27;4.80;;;9.50;1.00;;;;;;5003623;28;20030;-78
2023/03/22 03:29:38;;;;;;;7.35;4.60;;;9.50;1.00;;;;;;5006397;28;20092;-78
2023/03/22 03:32:24;;;;;;;6.72;5.00;;;9.50;1.00;;;;;;5007414;28;20526;-78
2023/03/22 03:34:55;;;;;;;8.52;5.13;;;9.50;1.00;;;;;;5002061;28;20078;-78
2023/03/22 03:37:27;;;;;;;7.60;4.40;;;9.50;1.00;;;;;;5007161;28;20047;-78
2023/03/22 03:40:18;;;;;;;7.47;4.85;;;9.50;1.00;;;;;;5006298;28;20042;-78
2023/03/22 03:42:49;;;;;;;8.82;5.18;;;9.50;1.00;;;;;;5000427;28;20598;-78
2023/03/22 03:45:17;;;;;;;6.50;4.88;;;9.40;1.00;;;;;;5012428;28;20045;-78
2023/03/22 03:47:54;;;;;;;14.20;6.80;;;9.40;1.00;;;;;;4998760;28;20043;-78
2023/03/22 03:50:20;;;;;;;7.68;5.55;;;9.40;1.00;;;;;;5003462;28;20039;-78
2023/03/22 03:52:47;;;;;;;8.35;5.72;;;9.40;1.00;;;;;;5000432;28;20038;-78
2023/03/22 03:55:13;;;;;;;8.40;4.88;;;9.30;1.00;;;;;;5003912;28;20066;-79
2023/03/22 03:57:39;;;;;;;7.32;5.75;;;9.30;1.00;;;;;;5004869;28;20042;-78
2023/03/22 04:00:06;;;;;;;7.38;4.68;;;9.30;1.00;;;;;;5019468;28;20054;-78
2023/03/22 04:03:05;;;;;;;7.55;5.72;;;9.20;1.00;;;;;;5002331;28;20045;-78
2023/03/22 04:06:02;;;;;;;10.13;6.00;;;9.20;1.00;;;;;;5015895;28;20387;-78
2023/03/22 04:08:31;;;;;;;8.10;5.63;;;9.20;1.00;;;;;;5003135;28;20046;-78
2023/03/22 04:10:58;;;;;;;8.55;5.38;;;9.20;1.00;;;;;;5002874;28;20464;-78
2023/03/22 04:13:24;;;;;;;7.90;5.57;;;9.30;1.00;;;;;;5002400;28;20042;-78
2023/03/22 04:15:56;;;;;;;10.55;6.05;;;9.30;1.00;;;;;;5006419;28;20475;-79
2023/03/22 04:18:23;;;;;;;10.73;6.03;;;9.20;1.00;;;;;;5004022;28;20042;-78
2023/03/22 04:20:52;;;;;;;7.28;4.90;;;9.20;1.00;;;;;;4999769;28;20061;-79
2023/03/22 04:23:21;;;;;;;9.18;6.88;;;9.20;1.00;;;;;;5006619;28;20046;-78
2023/03/22 04:25:49;;;;;;;9.55;6.07;;;9.10;1.00;;;;;;4992956;28;20053;-77
2023/03/22 04:28:18;;;;;;;9.82;6.38;;;9.10;1.00;;;;;;5001331;28;20375;-78
2023/03/22 04:30:49;;;;;;;8.43;5.72;;;9.00;1.00;;;;;;5000397;28;20053;-78
2023/03/22 04:33:38;;;;;;;9.52;6.15;;;9.00;1.00;;;;;;5009387;28;20471;-78
2023/03/22 04:36:29;;;;;;;9.30;6.38;;;8.90;1.00;;;;;;5006697;28;20045;-83
2023/03/22 04:39:20;;;;;;;9.82;6.32;;;8.90;1.00;;;;;;4995286;28;20053;-79
2023/03/22 04:41:55;;;;;;;9.38;6.15;;;8.80;1.00;;;;;;4986615;28;20042;-78
2023/03/22 04:44:21;;;;;;;12.25;7.10;;;8.80;1.00;;;;;;4999586;28;20400;-79
2023/03/22 04:46:49;;;;;;;8.48;6.22;;;8.80;1.00;;;;;;5004523;28;20466;-78
2023/03/22 04:49:16;;;;;;;9.02;6.35;;;8.70;1.00;;;;;;5002396;28;20061;-78
2023/03/22 04:51:43;;;;;;;9.07;6.07;;;8.60;1.00;;;;;;5000662;28;20049;-78
2023/03/22 04:54:22;;;;;;;9.48;5.43;;;8.50;1.00;;;;;;5001917;28;20042;-79
2023/03/22 04:56:49;;;;;;;9.82;6.57;;;8.40;1.00;;;;;;5005743;28;20117;-78
2023/03/22 04:59:19;;;;;;;9.45;6.32;;;8.30;1.00;;;;;;4984146;28;20057;-78
2023/03/22 05:01:49;;;;;;;12.88;7.50;;;8.20;1.00;;;;;;5001087;28;20389;-78
2023/03/22 05:04:19;;;;;;;8.50;5.82;;;8.10;1.00;;;;;;5013151;28;20078;-77
2023/03/22 05:06:47;;;;;;;9.18;6.57;;;8.10;1.00;;;;;;4995250;28;20046;-77
2023/03/22 05:09:22;;;;;;;18.17;6.93;;;7.90;1.00;;;;;;4996659;28;20042;-78
2023/03/22 05:11:51;;;;;;;10.75;7.88;;;7.90;1.00;;;;;;5006755;28;20049;-78
2023/03/22 05:14:30;;;;;;;9.90;6.25;;;7.80;1.00;;;;;;5000209;28;20118;-84
2023/03/22 05:16:56;;;;;;;12.00;6.65;;;7.70;1.00;;;;;;5007424;28;20046;-77
2023/03/22 05:19:23;;;;;;;11.43;6.50;;;7.70;1.00;;;;;;5000480;28;20046;-77
2023/03/22 05:21:56;;;;;;;10.70;5.95;;;7.60;1.00;;;;;;5009722;28;20030;-77
2023/03/22 05:24:25;;;;;;;11.45;6.30;;;7.60;1.00;;;;;;5019297;28;20501;-77
2023/03/22 05:26:54;;;;;;;9.10;6.35;;;7.60;1.00;;;;;;4999031;28;20065;-77
2023/03/22 05:29:23;;;;;;;8.40;6.55;;;7.50;1.00;;;;;;5001915;28;20058;-76
2023/03/22 05:32:24;;;;;;;9.13;6.53;;;7.50;1.00;;;;;;4996570;28;20052;-77
2023/03/22 05:34:55;;;;;;;9.23;6.13;;;7.50;1.00;;;;;;5000601;28;20101;-77
2023/03/22 05:37:28;;;;;;;9.50;5.80;;;7.50;1.00;;;;;;5015543;28;20042;-76
2023/03/22 05:39:56;;;;;;;10.38;6.43;;;7.50;1.00;;;;;;5001263;28;20061;-77
2023/03/22 05:42:32;;;;;;;11.05;7.10;;;7.50;1.00;;;;;;5005627;28;20582;-82
2023/03/22 05:45:00;;;;;;;10.48;6.38;;;7.60;1.00;;;;;;5006580;28;20045;-77
2023/03/22 05:47:26;;;;;;;10.95;5.60;;;7.70;1.00;;;;;;4999316;28;20050;-77
2023/03/22 05:50:00;;;;;;;9.32;5.20;;;7.70;1.00;;;;;;5006826;28;20521;-76
2023/03/22 05:52:28;;;;;;;10.90;5.38;;;7.80;1.00;;;;;;5003863;28;20052;-77
2023/03/22 05:55:13;;;;;;;9.45;5.93;;;8.00;1.00;;;;;;5002505;28;20045;-77
2023/03/22 05:57:40;;;;;;;7.97;5.35;;;8.10;1.00;;;;;;5003207;28;20467;-78
2023/03/22 06:00:12;;;;;;;7.03;4.90;;;8.20;1.00;;;;;;5018257;28;20537;-80
2023/03/22 06:03:02;;;;;;;8.52;4.82;;;8.30;1.00;;;;;;4997750;28;20391;-77
2023/03/22 06:05:35;;;;;;;7.20;4.50;;;8.40;1.00;;;;;;5002545;28;20044;-77
2023/03/22 06:08:03;;;;;;;10.32;4.68;;;8.50;1.00;;;;;;5002750;28;20061;-77
2023/03/22 06:10:29;;;;;;;8.27;4.90;;;8.60;1.00;;;;;;5005757;28;20050;-77
2023/03/22 06:12:55;;;;;;;7.70;4.95;;;9.00;1.00;;;;;;5004343;28;20887;-76
2023/03/22 06:15:28;;;;;;;6.63;4.50;;;9.70;1.00;;;;;;4999637;28;20049;-77
2023/03/22 06:18:05;;;;;;;6.38;4.38;;;10.30;1.00;;;;;;5007045;28;20038;-76
2023/03/22 06:20:37;;;;;;;5.05;3.72;;;10.70;1.00;;;;;;5014635;28;20046;-82
2023/03/22 06:23:09;;;;;;;6.82;5.00;;;10.90;1.00;;;;;;5001967;28;20118;-77
2023/03/22 06:25:36;;;;;;;5.43;3.92;;;11.00;1.00;;;;;;5004079;28;20042;-81
2023/03/22 06:28:02;;;;;;;8.30;4.00;;;11.30;1.00;;;;;;4999670;28;20048;-76
2023/03/22 06:30:30;;;;;;;10.10;5.50;;;11.10;1.00;;;;;;5004872;28;20057;-76
2023/03/22 06:33:08;;;;;;;7.25;4.18;;;11.20;1.00;;;;;;4999176;28;20045;-77
2023/03/22 06:35:37;;;;;;;5.40;3.83;;;11.10;1.00;;;;;;4998827;28;20038;-76
2023/03/22 06:38:05;;;;;;;5.47;3.42;;;10.90;1.00;;;;;;5004804;28;20459;-76
2023/03/22 06:40:34;;;;;;;9.88;3.75;;;11.00;1.00;;;;;;5004320;28;20502;-76
2023/03/22 06:43:02;;;;;;;6.70;3.60;;;11.20;1.00;;;;;;5001651;28;20053;-76
2023/03/22 06:45:32;;;;;;;6.30;3.72;;;11.70;99.90;;;;;;5004913;28;20061;-78
2023/03/22 06:47:59;;;;;;;5.43;3.25;;;11.80;99.90;;;;;;5003693;28;20038;-76
2023/03/22 06:50:37;;;;;;;6.93;3.80;;;12.00;99.90;;;;;;5004502;28;20045;-82
2023/03/22 06:53:09;;;;;;;4.35;3.50;;;12.20;99.90;;;;;;4996796;28;20042;-77
2023/03/22 06:55:35;;;;;;;6.05;3.67;;;12.60;99.90;;;;;;5018293;28;20061;-83
2023/03/22 06:58:11;;;;;;;6.15;3.05;;;13.20;99.90;;;;;;4995669;28;20507;-76
2023/03/22 07:00:38;;;;;;;5.32;2.65;;;13.30;99.90;;;;;;4993823;28;20038;-77
2023/03/22 07:03:06;;;;;;;5.15;3.17;;;13.50;99.90;;;;;;4994224;28;20034;-76
2023/03/22 07:05:38;;;;;;;5.53;3.42;;;13.70;99.90;;;;;;4993309;28;20039;-83
2023/03/22 07:08:05;;;;;;;7.97;3.13;;;13.40;99.90;;;;;;5009342;28;20038;-75
2023/03/22 07:10:31;;;;;;;7.13;3.55;;;13.30;99.90;;;;;;4993169;28;20047;-75
2023/03/22 07:12:58;;;;;;;7.38;2.80;;;13.50;99.90;;;;;;5002279;28;20034;-78
2023/03/22 07:15:24;;;;;;;6.22;2.90;;;13.40;99.90;;;;;;5008450;28;20038;-77
2023/03/22 07:17:56;;;;;;;4.43;2.63;;;13.20;99.90;;;;;;4994301;28;20046;-76
2023/03/22 07:20:23;;;;;;;6.22;2.90;;;13.10;99.90;;;;;;5000426;28;20055;-75
2023/03/22 07:22:50;;;;;;;6.28;3.28;;;12.80;99.90;;;;;;5003589;28;20057;-76
2023/03/22 07:25:17;;;;;;;4.93;2.80;;;12.60;99.90;;;;;;5000429;28;20038;-76
2023/03/22 07:27:45;;;;;;;5.47;2.63;;;12.90;99.90;;;;;;5007692;28;20045;-78
2023/03/22 07:30:12;;;;;;;5.43;2.38;;;13.10;99.90;;;;;;5002279;28;20056;-75
2023/03/22 07:32:42;;;;;;;4.57;2.72;;;13.30;99.90;;;;;;5000681;28;20042;-76
2023/03/22 07:35:12;;;;;;;6.45;2.40;;;13.40;99.90;;;;;;5005119;28;20048;-77
2023/03/22 07:37:40;;;;;;;5.10;2.67;;;13.40;99.90;;;;;;5006453;28;20046;-76
2023/03/22 07:40:16;;;;;;;4.50;2.28;;;13.50;99.90;;;;;;5020757;28;20052;-75
2023/03/22 07:42:42;;;;;;;5.40;2.30;;;13.70;99.90;;;;;;5004029;28;20046;-76
2023/03/22 07:45:22;;;;;;;4.95;2.22;;;13.50;99.90;;;;;;5017603;28;20369;-75
2023/03/22 07:48:10;;;;;;;6.45;2.15;;;13.40;99.90;;;;;;5003457;28;20041;-77
2023/03/22 07:50:47;;;;;;;5.57;3.00;;;13.50;99.90;;;;;;5003437;28;20053;-76
2023/03/22 07:53:13;;;;;;;4.28;1.88;;;13.70;99.90;;;;;;5003705;28;20049;-77
2023/03/22 07:55:42;;;;;;;4.35;1.98;;;14.00;99.90;;;;;;4999689;28;20026;-77
2023/03/22 07:58:09;;;;;;;2.88;2.03;;;14.10;99.90;;;;;;5016060;28;20046;-77
2023/03/22 08:00:35;;;;;;;6.50;1.90;;;13.90;99.90;;;;;;5002405;28;20045;-77
2023/03/22 08:03:22;;;;;;;3.13;1.70;;;14.00;99.90;;;;;;5014337;28;20385;-76
2023/03/22 08:06:12;;;;;;;3.80;1.90;;;14.40;99.90;;;;;;4993973;28;20038;-77
2023/03/22 08:08:41;;;;;;;5.43;2.22;;;14.70;99.90;;;;;;5016441;28;20038;-85
2023/03/22 08:11:07;;;;;;;3.47;1.70;;;14.70;99.90;;;;;;4996744;28;20042;-77
2023/03/22 08:13:34;;;;;;;5.75;1.90;;;14.80;99.90;;;;;;5001132;28;20038;-78
2023/03/22 08:16:00;;;;;;;4.28;2.08;;;14.40;99.90;;;;;;5002031;28;20384;-78
2023/03/22 08:18:26;;;;;;;6.80;2.38;;;14.20;99.90;;;;;;5005981;28;20050;-77
2023/03/22 08:20:58;;;;;;;5.45;2.45;;;14.30;99.90;;;;;;5011904;28;20485;-77
2023/03/22 08:23:27;;;;;;;4.32;1.90;;;14.40;99.90;;;;;;4985309;28;20045;-77
2023/03/22 08:26:12;;;;;;;5.13;2.40;;;14.20;99.90;;;;;;5010843;28;20041;-77
2023/03/22 08:28:38;;;;;;;4.97;2.65;;;14.10;99.90;;;;;;5001399;28;20046;-77
2023/03/22 08:31:13;;;;;;;6.78;1.77;;;14.10;99.90;;;;;;5003079;28;20484;-76
2023/03/22 08:33:39;;;;;;;2.42;1.80;;;14.20;99.90;;;;;;5002576;28;20045;-82
2023/03/22 08:36:08;;;;;;;4.25;2.10;;;14.70;99.90;;;;;;5001081;28;20045;-76
2023/03/22 08:38:44;;;;;;;4.75;2.20;;;14.80;99.90;;;;;;5006777;28;20368;-78
2023/03/22 08:41:12;;;;;;;4.32;1.77;;;14.90;99.90;;;;;;5006839;28;20053;-77
2023/03/22 08:43:39;;;;;;;2.35;1.30;;;15.00;99.90;;;;;;5002868;28;20479;-82
2023/03/22 08:46:05;;;;;;;3.72;1.88;;;15.30;99.90;;;;;;5002977;28;20487;-76
2023/03/22 08:48:32;;;;;;;5.25;1.90;;;15.50;99.90;;;;;;5004811;28;20049;-77
2023/03/22 08:51:06;;;;;;;4.88;1.70;;;15.80;99.90;;;;;;5004942;28;20050;-77
2023/03/22 08:53:51;;;;;;;3.97;1.63;;;16.10;99.90;;;;;;5015091;28;20060;-77
2023/03/22 08:56:37;;;;;;;3.65;1.48;;;16.10;99.90;;;;;;4974697;28;20038;-77
2023/03/22 08:59:19;;;;;;;5.45;1.63;;;15.70;99.90;;;;;;4999605;28;20038;-76
2023/03/22 09:01:56;;;;;;;2.38;1.00;;;15.60;99.90;;;;;;5008475;28;20054;-76
2023/03/22 09:04:23;;;;;;;7.75;1.70;;;15.30;99.90;;;;;;5006650;28;20052;-77
2023/03/22 09:06:49;;;;;;;4.03;2.50;;;15.20;99.90;;;;;;5006287;28;20447;-75
2023/03/22 09:09:16;;;;;;;4.53;2.25;;;15.30;99.90;;;;;;5005735;28;20387;-76
2023/03/22 09:11:44;;;;;;;2.00;0.90;;;15.60;99.90;;;;;;5002933;28;20053;-76
2023/03/22 09:14:10;;;;;;;6.40;1.88;;;15.90;99.90;;;;;;5000317;28;20105;-76
2023/03/22 09:16:36;;;;;;;6.13;2.17;;;15.80;99.90;;;;;;5018201;28;20487;-75
2023/03/22 09:19:05;;;;;;;7.18;1.73;;;15.70;99.90;;;;;;5005075;28;20046;-76
2023/03/22 09:21:31;;;;;;;3.10;1.13;;;15.80;99.90;;;;;;5005816;28;20053;-75
2023/03/22 09:24:09;;;;;;;2.45;0.80;;;15.90;99.90;;;;;;5000190;28;20050;-76
2023/03/22 09:26:40;;;;;;;3.88;0.90;;;16.10;99.90;;;;;;5001360;28;20046;-76
2023/03/22 09:29:06;;;;;;;3.78;1.30;;;15.90;99.90;;;;;;5002076;28;20404;-77
2023/03/22 09:31:33;;;;;;;2.92;1.23;;;16.00;99.90;;;;;;5000047;28;20045;-77
2023/03/22 09:34:15;;;;;;;2.53;0.80;;;16.20;99.90;;;;;;4977414;28;20178;-76
2023/03/22 09:36:41;;;;;;;2.05;1.00;;;16.40;99.90;;;;;;5004100;28;20042;-79
2023/03/22 09:39:09;;;;;;;7.40;1.45;;;16.70;99.90;;;;;;4997043;28;20065;-77
2023/03/22 09:41:45;;;;;;;2.55;1.10;;;16.50;99.90;;;;;;4999632;28;20042;-75
2023/03/22 09:44:17;;;;;;;1.20;0.77;;;16.90;99.90;;;;;;4993850;28;20199;-78
2023/03/22 09:46:48;;;;;;;3.60;1.02;;;17.00;99.90;;;;;;5002984;28;20038;-78
2023/03/22 09:49:23;;;;;;;1.70;0.80;;;16.70;99.90;;;;;;5011187;28;20033;-78
2023/03/22 09:51:51;;;;;;;3.75;0.80;;;16.90;99.90;;;;;;5013215;28;20030;-77
2023/03/22 09:54:33;;;;;;;3.53;0.73;;;16.70;99.90;;;;;;5003210;28;20451;-76
2023/03/22 09:57:23;;;;;;;1.75;0.70;;;16.60;99.90;;;;;;4995855;28;20033;-77
2023/03/22 10:00:11;;;;;;;3.07;1.07;;;16.10;99.90;;;;;;4996606;28;20049;-76
2023/03/22 10:03:00;;;;;;;4.28;0.98;;;16.20;99.90;;;;;;5006131;28;20038;-77
2023/03/22 10:05:56;;;;;;;1.48;0.70;;;16.40;99.90;;;;;;5002362;28;20038;-79
2023/03/22 10:08:26;;;;;;;2.83;0.98;;;16.00;99.90;;;;;;4990917;28;20042;-76
2023/03/22 10:10:52;;;;;;;1.70;0.98;;;16.10;99.90;;;;;;5018658;28;20042;-77
2023/03/22 10:13:25;;;;;;;3.75;1.63;;;16.20;99.90;;;;;;4996098;28;20035;-78
2023/03/22 10:16:05;;;;;;;3.92;1.08;;;16.00;99.90;;;;;;4991673;28;20031;-77
2023/03/22 10:18:33;;;;;;;3.50;1.60;;;16.10;99.90;;;;;;4993916;28;20029;-78
2023/03/22 10:21:07;;;;;;;3.72;1.48;;;16.10;99.90;;;;;;4989330;28;20038;-78
2023/03/22 10:23:48;;;;;;;3.08;1.23;;;16.10;99.90;;;;;;4997280;28;20039;-77
2023/03/22 10:26:32;;;;;;;5.68;1.40;;;16.00;99.90;;;;;;5003774;28;20031;-77
2023/03/22 10:29:05;;;;;;;2.13;1.00;;;16.10;99.90;;;;;;5002137;28;20415;-79
2023/03/22 10:31:32;;;;;;;3.03;1.17;;;16.20;99.90;;;;;;5001751;28;20042;-79
2023/03/22 10:34:06;;;;;;;3.10;0.70;;;16.70;99.90;;;;;;5000202;28;20041;-78
2023/03/22 10:36:37;;;;;;;5.03;1.00;;;16.90;99.90;;;;;;5001899;28;20046;-78
2023/03/22 10:39:18;;;;;;;0.88;0.63;;;17.00;99.90;;;;;;4995962;28;20045;-79
2023/03/22 10:41:46;;;;;;;2.35;0.90;;;17.10;99.90;;;;;;4998481;28;20026;-84
2023/03/22 10:44:16;;;;;;;3.17;0.80;;;17.30;99.90;;;;;;4984939;28;20037;-77
2023/03/22 10:46:45;;;;;;;2.47;0.95;;;17.50;99.90;;;;;;5003051;28;20034;-79
2023/03/22 10:49:38;;;;;;;1.13;0.60;;;17.70;99.90;;;;;;5004617;28;20026;-77
2023/03/22 10:52:19;;;;;;;1.45;0.75;;;17.70;99.90;;;;;;4981040;28;20042;-78
2023/03/22 10:54:45;;;;;;;1.40;0.70;;;17.60;99.90;;;;;;5001507;28;20053;-84
2023/03/22 10:57:11;;;;;;;2.13;1.10;;;17.40;99.90;;;;;;5002288;28;20041;-79
2023/03/22 10:59:46;;;;;;;4.82;0.98;;;17.10;99.90;;;;;;5004238;28;20042;-78
2023/03/22 11:02:22;;;;;;;3.67;0.95;;;17.20;99.90;;;;;;5001247;28;20034;-77
2023/03/22 11:04:51;;;;;;;7.22;1.23;;;17.30;99.90;;;;;;4984985;28;20479;-79
2023/03/22 11:07:29;;;;;;;2.45;0.50;;;17.30;99.90;;;;;;4989506;28;20046;-78
2023/03/22 11:10:18;;;;;;;2.58;0.60;;;17.50;99.90;;;;;;5009382;28;20038;-78
2023/03/22 11:12:53;;;;;;;3.97;0.85;;;17.80;99.90;;;;;;4977574;28;20418;-78
2023/03/22 11:15:31;;;;;;;4.65;1.00;;;17.90;99.90;;;;;;4977997;28;20041;-79
2023/03/22 11:18:07;;;;;;;1.50;0.70;;;18.00;99.90;;;;;;4997467;28;20053;-79
2023/03/22 11:20:34;;;;;;;2.92;1.10;;;18.20;99.90;;;;;;5004179;28;20031;-78
2023/03/22 11:23:04;;;;;;;2.08;0.93;;;18.60;99.90;;;;;;5009390;28;20038;-79
2023/03/22 11:25:43;;;;;;;3.10;0.93;;;18.50;99.90;;;;;;5005860;28;20058;-78
2023/03/22 11:28:25;;;;;;;4.72;1.00;;;18.20;99.90;;;;;;5010317;28;20482;-79
2023/03/22 11:31:05;;;;;;;3.50;1.00;;;18.20;99.90;;;;;;5009161;28;20479;-78
2023/03/22 11:33:33;;;;;;;3.97;1.00;;;18.40;99.90;;;;;;5005392;28;20026;-77
2023/03/22 11:36:13;;;;;;;4.00;0.88;;;18.30;99.90;;;;;;5001231;28;20065;-79
2023/03/22 11:38:42;;;;;;;1.30;0.95;;;18.50;99.90;;;;;;5004661;28;20034;-78
2023/03/22 11:41:34;;;;;;;3.38;0.70;;;18.80;99.90;;;;;;5009500;28;20396;-78
2023/03/22 11:44:21;;;;;;;1.13;0.60;;;19.00;99.90;;;;;;4967700;28;20403;-78
2023/03/22 11:46:57;;;;;;;1.73;0.70;;;19.20;99.90;;;;;;5002168;28;20038;-76
2023/03/22 11:49:26;;;;;;;1.73;0.60;;;18.90;99.90;;;;;;5003710;28;20386;-77
2023/03/22 11:51:54;;;;;;;3.33;0.70;;;18.60;99.90;;;;;;5010624;28;20036;-78
2023/03/22 11:54:34;;;;;;;1.27;0.60;;;18.70;99.90;;;;;;5000516;28;20025;-76
2023/03/22 11:57:04;;;;;;;1.77;0.70;;;18.90;99.90;;;;;;4997154;28;20025;-78
2023/03/22 11:59:38;;;;;;;3.90;0.70;;;19.00;99.90;;;;;;4999666;28;20046;-79
2023/03/22 12:02:25;;;;;;;1.95;0.90;;;19.20;99.90;;;;;;5001041;28;20042;-78
2023/03/22 12:05:03;;;;;;;2.38;0.70;;;19.10;99.90;;;;;;5006014;28;20094;-79
2023/03/22 12:07:31;;;;;;;3.08;0.65;;;18.80;99.90;;;;;;5006513;28;20042;-79
2023/03/22 12:10:18;;;;;;;11.77;10.00;;;19.00;99.90;;;;;;4990135;28;20046;-78
2023/03/22 12:12:51;;;;;;;5.13;3.33;;;19.10;99.90;;;;;;5008380;28;20048;-78
2023/03/22 12:15:24;;;;;;;3.65;1.50;;;19.20;99.90;;;;;;5002564;28;20057;-81
2023/03/22 12:18:01;;;;;;;2.15;0.63;;;19.10;99.90;;;;;;5001131;28;20049;-80
2023/03/22 12:20:50;;;;;;;13.15;8.40;;;18.70;99.90;;;;;;5005175;28;20391;-78
2023/03/22 12:23:20;;;;;;;2.33;1.10;;;19.00;99.90;;;;;;5000957;28;20042;-77
2023/03/22 12:25:52;;;;;;;2.88;1.88;;;19.30;99.90;;;;;;5007992;28;20048;-78
2023/03/22 12:28:25;;;;;;;1.98;0.93;;;19.30;99.90;;;;;;5004567;28;20046;-77
2023/03/22 12:30:55;;;;;;;3.40;1.55;;;19.30;99.90;;;;;;5010657;28;20030;-80
2023/03/22 12:33:26;;;;;;;2.17;0.85;;;19.00;99.90;;;;;;5001920;28;20042;-76
2023/03/22 12:36:04;;;;;;;1.15;0.50;;;19.00;99.90;;;;;;5005458;28;20034;-77
2023/03/22 12:38:40;;;;;;;10.75;6.25;;;19.20;99.90;;;;;;5000558;28;20479;-78
2023/03/22 12:41:13;;;;;;;10.18;7.78;;;19.10;99.90;;;;;;5001199;28;20052;-78
2023/03/22 12:43:55;;;;;;;27.92;24.52;;;19.00;99.90;;;;;;5008576;28;20041;-77
2023/03/22 12:46:33;;;;;;;2.42;1.30;;;19.40;99.90;;;;;;4996035;28;20042;-77
2023/03/22 12:49:31;;;;;;;2.53;0.80;;;19.80;99.90;;;;;;5008419;28;20034;-78
2023/03/22 12:52:16;;;;;;;2.85;1.33;;;20.00;99.90;;;;;;5002786;28;20053;-79
2023/03/22 12:54:43;;;;;;;10.13;6.75;;;20.00;99.90;;;;;;5001424;28;20053;-79
2023/03/22 12:57:10;;;;;;;61.90;43.92;;;19.80;99.90;;;;;;5007104;28;20041;-80
2023/03/22 12:59:37;;;;;;;4.90;2.22;;;19.70;99.90;;;;;;5006944;28;20030;-79
2023/03/22 13:02:16;;;;;;;5.47;1.67;;;19.50;99.90;;;;;;5009842;28;20036;-79
2023/03/22 13:04:42;;;;;;;10.85;2.03;;;19.30;99.90;;;;;;5001766;28;20041;-79
2023/03/22 13:07:50;;;;;;;2.70;1.00;;;19.10;99.90;;;;;;4992653;28;20046;-78
2023/03/22 13:10:32;;;;;;;10.95;5.85;;;19.00;99.90;;;;;;5000822;28;20475;-80
2023/03/22 13:13:20;;;;;;;4.45;2.88;;;19.10;99.90;;;;;;5000165;28;20046;-79
2023/03/22 13:16:07;;;;;;;7.60;4.25;;;19.20;99.90;;;;;;5001137;28;20030;-79
2023/03/22 13:18:57;;;;;;;4.80;1.33;;;19.30;99.90;;;;;;4999976;28;20057;-79
2023/03/22 13:21:25;;;;;;;3.80;0.90;;;19.20;99.90;;;;;;5005856;28;20503;-76
2023/03/22 13:24:08;;;;;;;3.13;1.15;;;19.10;99.90;;;;;;4989719;28;20053;-79
2023/03/22 13:26:57;;;;;;;1.05;0.50;;;19.10;99.90;;;;;;5000144;28;20053;-79